createdAt,value
2018-05-21T00:01:47.007Z,13.92
2018-05-21T00:04:15.257Z,13.95
2018-05-21T00:06:44.311Z,13.91
2018-05-21T00:09:12.576Z,13.88
2018-05-21T00:11:40.828Z,13.87
2018-05-21T00:14:09.100Z,13.73
2018-05-21T00:16:37.368Z,13.38
2018-05-21T00:19:05.627Z,13.56
2018-05-21T00:21:34.645Z,13.52
2018-05-21T00:24:02.909Z,13.58
2018-05-21T00:26:32.014Z,13.61
2018-05-21T00:29:00.292Z,13.37
2018-05-21T00:31:28.542Z,13.23
2018-05-21T00:33:57.556Z,13.32
2018-05-21T00:36:25.828Z,13.44
2018-05-21T00:38:54.936Z,13.41
2018-05-21T00:41:23.220Z,13.21
2018-05-21T00:43:51.500Z,13.23
2018-05-21T00:46:19.736Z,13.18
2018-05-21T00:48:47.993Z,13.08
2018-05-21T00:51:16.328Z,13.16
2018-05-21T00:53:44.601Z,13.12
2018-05-21T00:56:12.877Z,13.10
2018-05-21T00:58:41.139Z,13.17
2018-05-21T01:01:09.398Z,13.28
2018-05-21T01:03:38.516Z,13.19
2018-05-21T01:06:06.806Z,13.20
2018-05-21T01:08:35.069Z,13.23
2018-05-21T01:11:03.344Z,13.04
2018-05-21T01:13:31.621Z,13.09
2018-05-21T01:15:59.889Z,13.13
2018-05-21T01:18:28.176Z,13.20
2018-05-21T01:20:56.428Z,13.35
2018-05-21T01:23:25.546Z,13.31
2018-05-21T01:25:53.840Z,13.39
2018-05-21T01:28:22.106Z,13.49
2018-05-21T01:30:50.369Z,13.56
2018-05-21T01:33:18.657Z,13.51
2018-05-21T01:35:46.907Z,13.52
2018-05-21T01:38:15.935Z,13.67
2018-05-21T01:40:44.184Z,13.72
2018-05-21T01:43:13.309Z,13.70
2018-05-21T01:45:41.577Z,13.51
2018-05-21T01:48:09.829Z,13.69
2018-05-21T01:50:38.849Z,13.83
2018-05-21T01:53:07.133Z,13.74
2018-05-21T01:55:35.401Z,13.63
2018-05-21T01:58:03.669Z,13.80
2018-05-21T02:00:32.570Z,13.82
2018-05-21T02:03:00.837Z,13.90
2018-05-21T02:05:29.092Z,13.82
2018-05-21T02:07:58.123Z,13.80
2018-05-21T02:10:26.378Z,13.98
2018-05-21T02:12:54.645Z,13.99
2018-05-21T02:15:23.664Z,13.83
2018-05-21T02:17:51.925Z,13.85
2018-05-21T02:20:20.187Z,13.74
2018-05-21T02:22:49.302Z,13.76
2018-05-21T02:25:17.561Z,13.31
2018-05-21T02:27:46.602Z,13.57
2018-05-21T02:30:14.855Z,13.40
2018-05-21T02:32:43.106Z,13.34
2018-05-21T02:35:11.385Z,13.42
2018-05-21T02:37:39.645Z,13.47
2018-05-21T02:40:08.768Z,13.45
2018-05-21T02:42:37.034Z,13.31
2018-05-21T02:45:06.041Z,13.30
2018-05-21T02:47:34.421Z,13.26
2018-05-21T02:50:02.699Z,13.34
2018-05-21T02:52:30.956Z,13.38
2018-05-21T02:54:59.981Z,13.44
2018-05-21T02:57:28.341Z,13.52
2018-05-21T02:59:56.600Z,13.60
2018-05-21T03:02:25.674Z,13.60
2018-05-21T03:04:53.950Z,13.52
2018-05-21T03:07:22.229Z,13.39
2018-05-21T03:09:50.536Z,13.43
2018-05-21T03:12:18.793Z,13.50
2018-05-21T03:14:47.814Z,13.32
2018-05-21T03:17:16.089Z,13.33
2018-05-21T03:19:44.366Z,13.31
2018-05-21T03:22:12.669Z,13.17
2018-05-21T03:24:40.930Z,13.21
2018-05-21T03:27:09.181Z,13.26
2018-05-21T03:29:38.236Z,13.37
2018-05-21T03:32:06.498Z,13.28
2018-05-21T03:34:34.764Z,13.23
2018-05-21T03:37:03.013Z,13.27
2018-05-21T03:39:31.296Z,13.06
2018-05-21T03:41:59.561Z,12.80
2018-05-21T03:44:28.581Z,12.65
2018-05-21T03:46:56.836Z,12.75
2018-05-21T03:49:25.114Z,12.52
2018-05-21T03:51:53.365Z,12.29
2018-05-21T03:54:22.397Z,12.49
2018-05-21T03:56:50.659Z,12.54
2018-05-21T03:59:36.685Z,12.44
2018-05-21T04:02:22.680Z,12.33
2018-05-21T04:04:51.020Z,12.37
2018-05-21T04:07:19.309Z,12.20
2018-05-21T04:12:15.183Z,12.30
2018-05-21T04:14:43.436Z,12.13
2018-05-21T04:17:11.694Z,12.14
2018-05-21T04:19:40.060Z,12.11
2018-05-21T04:22:08.329Z,12.13
2018-05-21T04:24:37.432Z,12.32
2018-05-21T04:27:05.704Z,12.37
2018-05-21T04:29:33.957Z,12.27
2018-05-21T04:32:02.281Z,12.46
2018-05-21T04:34:30.556Z,12.72
2018-05-21T04:36:58.809Z,12.86
2018-05-21T04:39:27.836Z,12.88
2018-05-21T04:41:56.086Z,13.08
2018-05-21T04:44:24.376Z,13.03
2018-05-21T04:46:52.638Z,13.00
2018-05-21T04:49:20.930Z,13.20
2018-05-21T04:51:49.208Z,13.19
2018-05-21T04:54:17.528Z,13.14
2018-05-21T04:56:45.768Z,13.19
2018-05-21T04:59:14.023Z,13.41
2018-05-21T05:01:42.297Z,13.59
2018-05-21T05:04:10.552Z,13.65
2018-05-21T05:06:39.667Z,13.75
2018-05-21T05:09:07.954Z,13.99
2018-05-21T05:11:36.210Z,13.93
2018-05-21T05:14:05.240Z,13.98
2018-05-21T05:16:33.497Z,14.07
2018-05-21T05:19:01.745Z,14.19
2018-05-21T05:21:30.777Z,14.19
2018-05-21T05:23:59.040Z,14.22
2018-05-21T05:26:27.316Z,14.29
2018-05-21T05:28:55.602Z,14.44
2018-05-21T05:31:23.849Z,14.48
2018-05-21T05:33:52.876Z,14.54
2018-05-21T05:36:21.145Z,14.61
2018-05-21T05:38:49.402Z,14.68
2018-05-21T05:41:18.502Z,14.87
2018-05-21T05:43:46.795Z,15.00
2018-05-21T05:46:15.044Z,15.08
2018-05-21T05:48:44.105Z,15.14
2018-05-21T05:51:12.333Z,15.16
2018-05-21T05:53:40.607Z,15.10
2018-05-21T05:56:08.869Z,15.21
2018-05-21T05:58:37.979Z,15.31
2018-05-21T06:01:06.235Z,15.38
2018-05-21T06:03:35.262Z,15.56
2018-05-21T06:06:03.528Z,15.50
2018-05-21T06:08:31.800Z,15.63
2018-05-21T06:11:00.092Z,15.87
2018-05-21T06:13:28.352Z,15.86
2018-05-21T06:15:56.614Z,16.03
2018-05-21T06:18:25.730Z,16.20
2018-05-21T06:20:53.989Z,16.10
2018-05-21T06:23:23.079Z,16.24
2018-05-21T06:25:51.490Z,16.43
2018-05-21T06:28:19.751Z,16.41
2018-05-21T06:30:48.079Z,16.65
2018-05-21T06:33:16.379Z,16.84
2018-05-21T06:35:45.453Z,16.96
2018-05-21T06:38:13.772Z,17.09
2018-05-21T06:40:42.980Z,17.14
2018-05-21T06:43:11.256Z,17.30
2018-05-21T06:45:39.506Z,17.48
2018-05-21T06:48:08.530Z,17.38
2018-05-21T06:50:36.875Z,17.38
2018-05-21T06:53:05.077Z,17.54
2018-05-21T06:55:33.341Z,17.69
2018-05-21T06:58:02.383Z,17.63
2018-05-21T07:00:30.968Z,17.80
2018-05-21T07:02:59.228Z,18.12
2018-05-21T07:05:27.493Z,18.34
2018-05-21T07:07:55.831Z,18.33
2018-05-21T07:10:24.143Z,18.26
2018-05-21T07:12:52.405Z,18.46
2018-05-21T07:15:20.654Z,18.65
2018-05-21T07:17:48.968Z,18.85
2018-05-21T07:20:17.241Z,19.05
2018-05-21T07:22:45.493Z,19.10
2018-05-21T07:25:14.621Z,19.14
2018-05-21T07:27:43.066Z,19.18
2018-05-21T07:30:11.354Z,19.30
2018-05-21T07:32:40.376Z,19.21
2018-05-21T07:35:08.651Z,19.28
2018-05-21T07:37:36.914Z,19.36
2018-05-21T07:40:05.159Z,19.58
2018-05-21T07:42:33.477Z,19.45
2018-05-21T07:45:01.757Z,19.43
2018-05-21T07:47:30.133Z,19.46
2018-05-21T07:49:58.400Z,19.51
2018-05-21T07:52:26.685Z,19.60
2018-05-21T07:54:54.939Z,19.78
2018-05-21T07:57:23.981Z,19.87
2018-05-21T07:59:52.323Z,20.11
2018-05-21T08:02:20.615Z,20.24
2018-05-21T08:04:48.891Z,20.32
2018-05-21T08:07:17.144Z,20.44
2018-05-21T08:09:46.169Z,20.55
2018-05-21T08:12:14.533Z,20.66
2018-05-21T08:14:42.905Z,20.76
2018-05-21T08:17:11.835Z,20.88
2018-05-21T08:19:40.101Z,20.63
2018-05-21T08:22:08.462Z,20.87
2018-05-21T08:24:37.440Z,20.82
2018-05-21T08:27:05.729Z,20.97
2018-05-21T08:29:34.001Z,21.13
2018-05-21T08:32:02.264Z,20.92
2018-05-21T08:34:33.008Z,21.01
2018-05-21T08:37:01.308Z,21.11
2018-05-21T08:39:29.548Z,21.22
2018-05-21T08:41:58.583Z,21.30
2018-05-21T08:44:26.835Z,21.22
2018-05-21T08:46:55.080Z,21.55
2018-05-21T08:49:24.201Z,21.82
2018-05-21T08:51:52.476Z,22.00
2018-05-21T08:54:20.761Z,21.94
2018-05-21T08:56:49.241Z,21.89
2018-05-21T08:59:17.493Z,21.72
2018-05-21T09:01:46.513Z,22.10
2018-05-21T09:04:14.781Z,22.30
2018-05-21T09:06:43.065Z,22.39
2018-05-21T09:09:11.325Z,22.06
2018-05-21T09:11:39.596Z,22.30
2018-05-21T09:14:08.619Z,22.29
2018-05-21T09:16:36.872Z,22.27
2018-05-21T09:19:05.989Z,22.34
2018-05-21T09:21:34.250Z,22.47
2018-05-21T09:24:02.544Z,22.49
2018-05-21T09:26:30.881Z,22.50
2018-05-21T09:28:59.912Z,22.59
2018-05-21T09:31:28.193Z,22.73
2018-05-21T09:33:56.441Z,22.49
2018-05-21T09:36:24.718Z,22.75
2018-05-21T09:38:53.822Z,22.86
2018-05-21T09:41:22.089Z,22.99
2018-05-21T09:43:51.131Z,23.07
2018-05-21T09:46:19.412Z,23.06
2018-05-21T09:48:47.813Z,23.18
2018-05-21T09:51:15.939Z,23.24
2018-05-21T09:53:44.181Z,23.32
2018-05-21T09:56:13.296Z,23.10
2018-05-21T09:58:41.554Z,22.99
2018-05-21T10:01:10.581Z,22.77
2018-05-21T10:03:38.844Z,23.10
2018-05-21T10:06:07.243Z,22.94
2018-05-21T10:08:35.485Z,23.16
2018-05-21T10:11:04.516Z,23.30
2018-05-21T10:13:32.769Z,23.45
2018-05-21T10:16:01.053Z,23.63
2018-05-21T10:18:29.432Z,23.82
2018-05-21T10:20:57.676Z,23.77
2018-05-21T10:23:26.695Z,24.09
2018-05-21T10:25:55.143Z,24.06
2018-05-21T10:28:23.317Z,24.12
2018-05-21T10:30:52.345Z,24.26
2018-05-21T10:33:20.644Z,24.05
2018-05-21T10:35:48.901Z,24.12
2018-05-21T10:38:17.157Z,23.94
2018-05-21T10:40:45.444Z,24.00
2018-05-21T10:43:13.732Z,24.30
2018-05-21T10:45:41.996Z,24.25
2018-05-21T10:48:10.272Z,24.54
2018-05-21T10:50:38.521Z,24.45
2018-05-21T10:53:07.640Z,24.24
2018-05-21T10:55:35.940Z,24.66
2018-05-21T10:58:04.300Z,24.62
2018-05-21T11:00:32.543Z,24.94
2018-05-21T11:03:01.583Z,24.91
2018-05-21T11:05:29.829Z,25.07
2018-05-21T11:07:58.858Z,25.00
2018-05-21T11:10:27.217Z,24.68
2018-05-21T11:12:55.464Z,24.78
2018-05-21T11:15:24.484Z,25.00
2018-05-21T11:17:52.846Z,24.76
2018-05-21T11:20:21.045Z,24.98
2018-05-21T11:22:49.320Z,25.00
2018-05-21T11:25:17.597Z,25.08
2018-05-21T11:27:45.865Z,25.19
2018-05-21T11:30:14.114Z,25.35
2018-05-21T11:32:42.378Z,25.44
2018-05-21T11:35:10.630Z,25.71
2018-05-21T11:37:38.975Z,25.58
2018-05-21T11:40:07.264Z,25.39
2018-05-21T11:42:35.508Z,25.29
2018-05-21T11:45:04.520Z,25.72
2018-05-21T11:47:32.810Z,25.80
2018-05-21T11:50:01.177Z,26.04
2018-05-21T11:52:29.328Z,26.01
2018-05-21T11:54:58.388Z,25.86
2018-05-21T11:57:26.721Z,25.67
2018-05-21T11:59:55.165Z,25.77
2018-05-21T12:02:23.427Z,26.01
2018-05-21T12:04:51.675Z,26.27
2018-05-21T12:07:20.032Z,26.33
2018-05-21T12:09:48.313Z,26.63
2018-05-21T12:12:16.572Z,26.64
2018-05-21T12:14:44.833Z,27.03
2018-05-21T12:17:13.898Z,26.90
2018-05-21T12:19:42.225Z,27.05
2018-05-21T12:22:10.524Z,27.23
2018-05-21T12:24:38.889Z,27.21
2018-05-21T12:27:07.138Z,27.37
2018-05-21T12:29:36.150Z,27.60
2018-05-21T12:32:04.438Z,28.09
2018-05-21T12:34:32.725Z,28.16
2018-05-21T12:37:00.997Z,28.24
2018-05-21T12:39:29.244Z,28.11
2018-05-21T12:41:58.374Z,28.13
2018-05-21T12:44:26.714Z,27.62
2018-05-21T12:46:54.970Z,28.16
2018-05-21T12:49:23.921Z,28.25
2018-05-21T12:51:52.189Z,28.44
2018-05-21T12:54:20.445Z,28.57
2018-05-21T12:56:49.469Z,27.36
2018-05-21T12:59:17.733Z,27.40
2018-05-21T13:01:46.011Z,27.85
2018-05-21T13:04:14.281Z,27.39
2018-05-21T13:06:42.562Z,27.75
2018-05-21T13:09:10.804Z,28.20
2018-05-21T13:11:39.830Z,28.78
2018-05-21T13:14:08.215Z,28.61
2018-05-21T13:16:36.477Z,28.69
2018-05-21T13:19:04.726Z,28.88
2018-05-21T13:21:33.762Z,28.77
2018-05-21T13:24:02.033Z,28.86
2018-05-21T13:26:30.278Z,28.64
2018-05-21T13:28:59.407Z,28.72
2018-05-21T13:31:27.658Z,29.15
2018-05-21T13:33:56.673Z,29.32
2018-05-21T13:36:24.945Z,29.30
2018-05-21T13:38:53.215Z,29.53
2018-05-21T13:41:21.464Z,29.86
2018-05-21T13:43:50.504Z,30.57
2018-05-21T13:46:18.769Z,31.07
2018-05-21T13:48:47.037Z,32.03
2018-05-21T13:51:15.363Z,32.63
2018-05-21T13:53:43.612Z,33.52
2018-05-21T13:56:11.896Z,33.29
2018-05-21T13:58:40.180Z,34.86
2018-05-21T14:01:09.366Z,35.07
2018-05-21T14:03:37.641Z,33.28
2018-05-21T14:06:05.997Z,32.52
2018-05-21T14:08:34.261Z,33.91
2018-05-21T14:11:03.280Z,35.04
2018-05-21T14:13:31.557Z,35.58
2018-05-21T14:15:59.808Z,35.07
2018-05-21T14:18:28.832Z,35.28
2018-05-21T14:20:57.100Z,34.12
2018-05-21T14:23:25.352Z,34.13
2018-05-21T14:25:55.615Z,34.99
2018-05-21T14:28:23.992Z,35.71
2018-05-21T14:30:52.241Z,35.73
2018-05-21T14:33:20.484Z,34.67
2018-05-21T14:35:48.792Z,35.95
2018-05-21T14:38:18.912Z,36.20
2018-05-21T14:40:47.252Z,36.18
2018-05-21T14:43:15.604Z,35.93
2018-05-21T14:45:43.946Z,34.35
2018-05-21T14:48:12.307Z,34.12
2018-05-21T14:50:41.407Z,33.86
2018-05-21T14:53:09.748Z,35.26
2018-05-21T14:55:38.069Z,35.22
2018-05-21T14:58:06.395Z,35.72
2018-05-21T15:00:34.852Z,35.24
2018-05-21T15:03:03.942Z,35.08
2018-05-21T15:05:32.309Z,35.89
2018-05-21T15:08:01.347Z,35.91
2018-05-21T15:10:29.669Z,36.27
2018-05-21T15:12:58.765Z,36.80
2018-05-21T15:15:27.080Z,36.85
2018-05-21T15:17:55.386Z,36.37
2018-05-21T15:20:24.484Z,37.17
2018-05-21T15:22:52.818Z,37.28
2018-05-21T15:25:21.134Z,36.86
2018-05-21T15:27:49.468Z,36.17
2018-05-21T15:30:17.788Z,36.84
2018-05-21T15:32:46.085Z,37.87
2018-05-21T15:35:15.181Z,38.59
2018-05-21T15:37:43.523Z,38.18
2018-05-21T15:40:12.613Z,38.02
2018-05-21T15:42:40.953Z,37.92
2018-05-21T15:45:09.290Z,36.96
2018-05-21T15:47:37.598Z,37.13
2018-05-21T15:50:05.914Z,37.90
2018-05-21T15:52:34.278Z,38.03
2018-05-21T15:55:02.612Z,37.76
2018-05-21T15:57:31.733Z,37.51
2018-05-21T16:00:00.065Z,37.56
2018-05-21T16:02:28.424Z,37.14
2018-05-21T16:04:56.785Z,37.68
2018-05-21T16:07:25.105Z,37.75
2018-05-21T16:09:53.442Z,38.22
2018-05-21T16:12:21.768Z,37.31
2018-05-21T16:14:50.145Z,35.77
2018-05-21T16:17:18.488Z,34.76
2018-05-21T16:19:46.852Z,34.86
2018-05-21T16:22:15.187Z,33.40
2018-05-21T16:24:44.286Z,34.09
2018-05-21T16:27:12.718Z,34.86
2018-05-21T16:29:41.017Z,35.51
2018-05-21T16:32:09.365Z,35.90
2018-05-21T16:34:37.628Z,35.74
2018-05-21T16:37:05.949Z,35.32
2018-05-21T16:39:34.260Z,34.55
2018-05-21T16:42:03.373Z,34.82
2018-05-21T16:44:31.656Z,35.31
2018-05-21T16:46:59.936Z,35.65
2018-05-21T16:49:28.291Z,36.10
2018-05-21T16:51:56.489Z,35.84
2018-05-21T16:54:24.769Z,35.80
2018-05-21T16:56:53.065Z,35.20
2018-05-21T16:59:21.408Z,34.61
2018-05-21T17:01:49.784Z,33.66
2018-05-21T17:04:18.080Z,34.18
2018-05-21T17:06:46.502Z,33.82
2018-05-21T17:09:15.003Z,34.49
2018-05-21T17:11:43.253Z,34.74
2018-05-21T17:14:11.589Z,35.07
2018-05-21T17:16:39.932Z,35.88
2018-05-21T17:19:08.458Z,35.55
2018-05-21T17:21:36.751Z,36.08
2018-05-21T17:24:05.014Z,36.51
2018-05-21T17:26:33.305Z,37.14
2018-05-21T17:29:01.663Z,37.40
2018-05-21T17:31:29.987Z,37.61
2018-05-21T17:33:58.396Z,37.09
2018-05-21T17:36:26.750Z,36.59
2018-05-21T17:38:55.899Z,36.60
2018-05-21T17:41:24.691Z,35.90
2018-05-21T17:43:53.489Z,35.33
2018-05-21T17:46:22.158Z,34.74
2018-05-21T17:48:50.709Z,34.38
2018-05-21T17:51:20.114Z,33.72
2018-05-21T17:53:49.372Z,33.67
2018-05-21T17:56:19.231Z,32.87
2018-05-21T17:58:49.162Z,31.97
2018-05-21T18:01:19.947Z,30.71
2018-05-21T18:03:49.931Z,29.33
2018-05-21T18:06:19.821Z,29.16
2018-05-21T18:08:49.576Z,28.71
2018-05-21T18:11:19.253Z,28.03
2018-05-21T18:13:49.305Z,27.75
2018-05-21T18:16:19.386Z,27.53
2018-05-21T18:18:49.367Z,27.11
2018-05-21T18:21:20.303Z,26.62
2018-05-21T18:23:50.492Z,26.31
2018-05-21T18:26:20.438Z,25.94
2018-05-21T18:28:51.523Z,25.78
2018-05-21T18:31:22.376Z,25.69
2018-05-21T18:33:52.553Z,25.52
2018-05-21T18:36:22.484Z,25.37
2018-05-21T18:38:53.281Z,25.20
2018-05-21T18:41:23.209Z,25.06
2018-05-21T18:43:54.604Z,24.53
2018-05-21T18:46:24.591Z,24.10
2018-05-21T18:48:55.338Z,23.97
2018-05-21T18:51:26.167Z,23.86
2018-05-21T18:53:56.103Z,23.73
2018-05-21T18:56:25.936Z,23.51
2018-05-21T18:58:56.072Z,23.26
2018-05-21T19:01:26.327Z,23.31
2018-05-21T19:03:56.269Z,23.24
2018-05-21T19:06:27.081Z,23.18
2018-05-21T19:08:57.013Z,23.08
2018-05-21T19:11:26.957Z,22.81
2018-05-21T19:13:57.033Z,22.59
2018-05-21T19:16:27.954Z,22.48
2018-05-21T19:18:57.952Z,22.42
2018-05-21T19:21:28.125Z,22.25
2018-05-21T19:23:59.457Z,22.04
2018-05-21T19:26:30.098Z,21.96
2018-05-21T19:29:00.911Z,21.73
2018-05-21T19:31:30.791Z,21.52
2018-05-21T19:34:00.874Z,21.28
2018-05-21T19:36:31.519Z,21.30
2018-05-21T19:39:02.228Z,21.31
2018-05-21T19:41:32.112Z,21.30
2018-05-21T19:44:01.941Z,21.20
2018-05-21T19:46:31.639Z,21.09
2018-05-21T19:49:01.831Z,20.82
2018-05-21T19:51:32.035Z,20.77
2018-05-21T19:54:01.982Z,20.60
2018-05-21T19:56:31.835Z,20.40
2018-05-21T19:59:02.532Z,20.36
2018-05-21T20:01:32.654Z,20.27
2018-05-21T20:04:02.815Z,20.25
2018-05-21T20:06:33.694Z,20.11
2018-05-21T20:09:03.860Z,20.11
2018-05-21T20:11:34.587Z,20.15
2018-05-21T20:14:04.922Z,20.18
2018-05-21T20:16:35.761Z,20.10
2018-05-21T20:19:06.425Z,20.06
2018-05-21T20:21:36.236Z,20.06
2018-05-21T20:24:06.948Z,20.11
2018-05-21T20:26:38.231Z,20.02
2018-05-21T20:29:08.155Z,19.89
2018-05-21T20:31:37.800Z,19.81
2018-05-21T20:34:08.259Z,19.88
2018-05-21T20:36:39.014Z,19.78
2018-05-21T20:39:08.949Z,19.80
2018-05-21T20:41:38.641Z,19.71
2018-05-21T20:44:08.772Z,19.79
2018-05-21T20:46:38.488Z,19.72
2018-05-21T20:49:08.732Z,19.51
2018-05-21T20:51:39.221Z,19.48
2018-05-21T20:54:08.923Z,19.52
2018-05-21T20:56:38.555Z,19.62
2018-05-21T20:59:08.295Z,19.68
2018-05-21T21:01:38.726Z,19.75
2018-05-21T21:04:09.227Z,19.82
2018-05-21T21:06:38.955Z,19.86
2018-05-21T21:09:09.366Z,19.81
2018-05-21T21:11:39.015Z,19.67
2018-05-21T21:14:09.450Z,19.77
2018-05-21T21:16:39.757Z,19.70
2018-05-21T21:19:10.009Z,19.65
2018-05-21T21:21:39.190Z,19.73
2018-05-21T21:24:07.548Z,19.60
2018-05-21T21:26:35.887Z,19.62
2018-05-21T21:29:05.029Z,19.69
2018-05-21T21:31:33.340Z,19.73
2018-05-21T21:34:01.690Z,19.75
2018-05-21T21:36:30.012Z,19.77
2018-05-21T21:38:58.364Z,19.73
2018-05-21T21:41:26.672Z,19.61
2018-05-21T21:43:55.021Z,19.55
2018-05-21T21:46:23.357Z,19.49
2018-05-21T21:48:52.433Z,19.40
2018-05-21T21:51:20.736Z,19.41
2018-05-21T21:53:49.816Z,19.44
2018-05-21T21:56:18.904Z,19.45
2018-05-21T21:58:47.971Z,19.36
2018-05-21T22:01:17.844Z,19.33
2018-05-21T22:03:46.168Z,19.17
2018-05-21T22:06:15.271Z,19.21
2018-05-21T22:08:43.606Z,19.19
2018-05-21T22:11:11.916Z,18.98
2018-05-21T22:13:40.260Z,18.78
2018-05-21T22:16:08.593Z,18.49
2018-05-21T22:18:38.431Z,18.40
2018-05-21T22:21:07.504Z,18.38
2018-05-21T22:23:36.604Z,18.38
2018-05-21T22:26:05.990Z,18.38
2018-05-21T22:28:35.853Z,18.47
2018-05-21T22:31:04.187Z,18.39
2018-05-21T22:33:33.287Z,18.32
2018-05-21T22:36:02.404Z,18.03
2018-05-21T22:38:30.726Z,18.03
2018-05-21T22:40:59.033Z,18.09
2018-05-21T22:43:28.167Z,18.14
2018-05-21T22:45:56.468Z,18.12
2018-05-21T22:48:24.794Z,18.08
2018-05-21T22:50:53.899Z,18.05
2018-05-21T22:53:22.984Z,17.99
2018-05-21T22:55:52.080Z,17.97
2018-05-21T22:58:21.175Z,18.02
2018-05-21T23:00:50.294Z,17.89
2018-05-21T23:03:19.370Z,17.81
2018-05-21T23:05:48.472Z,17.75
2018-05-21T23:08:17.555Z,17.86
2018-05-21T23:10:46.663Z,17.96
2018-05-21T23:13:15.759Z,18.01
2018-05-21T23:15:44.832Z,18.08
2018-05-21T23:18:13.184Z,18.09
2018-05-21T23:20:41.493Z,18.01
2018-05-21T23:23:09.793Z,18.05
2018-05-21T23:25:38.892Z,18.02
2018-05-21T23:28:07.221Z,18.05
2018-05-21T23:30:35.568Z,17.94
2018-05-21T23:33:03.889Z,17.96
2018-05-21T23:35:32.175Z,17.97
2018-05-21T23:38:01.283Z,17.94
2018-05-21T23:40:30.364Z,17.84
2018-05-21T23:43:00.212Z,17.72
2018-05-21T23:45:28.531Z,17.69
2018-05-21T23:47:56.849Z,17.69
2018-05-21T23:50:25.976Z,17.66
2018-05-21T23:52:54.283Z,17.55
2018-05-21T23:55:22.582Z,17.47
2018-05-21T23:57:51.667Z,17.33
